Portada
METAR-TAF:

METAR-TAF

Aeropuertos :

Quelimane, Mozambique

latitud: 17-53S, longitud: 036-53E, altitud: 6 m

Observación

El informe se hizo hace 21 minutos, a las 21:00 UTC
Viento 5 kt del este
Temperatura 25°C
Humedad 89%
Presión 1014 hPa
Visibilidad 10 km o más
sin nubes por debajo de 1500 m y sin presencia de cumulonimbus.

METAR: FQQL 262100Z 08005KT CAVOK 25/23 Q1014

Hora: 23:21 (21:21 UTC)

Pronóstico

El informe se hizo hace 5 horas y 21 minutos, a las 16:00 UTC
Pronóstico válido del 26 a las 18 UTC al 27 a las 18 UTC
Viento 10 kt del este-noreste
Visibilidad 10 km o más
Escasas nubes a una altura de 2000 ft
Evolucionando progresivamente
del 27 a las 06 UTC al 27 a las 08 UTC
Viento 8 kt del norte-noroeste
Evolucionando progresivamente
del 27 a las 12 UTC al 27 a las 14 UTC
Viento 10 kt del sur-sureste

TAF: FQQL 261600Z 2618/2718 06010KT 9999 FEW020 TX33/2713Z TN21/2703Z BECMG 2706/2708 34008KT BECMG 2712/2714 15010KT

Observaciones y pronósticos meteorológicos de más de 4000 aeropuertos (mensajes METAR y TAF).

Los puntos amarillos y rojos representan las estaciones disponibles.

Ponga el ratón en el punto deseado para ver el nombre de la estación.

Haga clic para ver las observaciones y los pronósticos meteorológicos.

Para cambiar el mapa : haga clic en los botones verdes con una cruz de color negro para hacer un zoom, en el botón verde con un guión para alejar o en las flechas verdes para mapas adyacentes.


METAR-TAF: